createdAt,value
2023-03-30T00:01:15.692Z,19.25
2023-03-30T00:04:20.208Z,20.52
2023-03-30T00:07:26.215Z,17.40
2023-03-30T00:10:30.785Z,16.70
2023-03-30T00:13:35.936Z,18.02
2023-03-30T00:16:39.722Z,27.60
2023-03-30T00:19:44.364Z,15.98
2023-03-30T00:22:48.789Z,17.73
2023-03-30T00:25:53.100Z,52.20
2023-03-30T00:28:57.223Z,15.73
2023-03-30T00:32:02.090Z,26.50
2023-03-30T00:35:06.863Z,17.02
2023-03-30T00:38:11.098Z,26.07
2023-03-30T00:41:15.519Z,33.85
2023-03-30T00:44:56.665Z,18.20
2023-03-30T00:48:10.214Z,18.73
2023-03-30T00:51:15.919Z,15.68
2023-03-30T00:54:21.843Z,16.70
2023-03-30T00:57:28.416Z,17.38
2023-03-30T01:00:33.952Z,15.50
2023-03-30T01:03:46.476Z,16.60
2023-03-30T01:06:52.873Z,15.77
2023-03-30T01:09:57.403Z,15.27
2023-03-30T01:13:02.390Z,15.93
2023-03-30T01:16:24.808Z,15.52
2023-03-30T01:19:49.096Z,16.83
2023-03-30T01:23:28.077Z,16.85
2023-03-30T01:26:35.339Z,15.15
2023-03-30T01:30:25.602Z,15.05
2023-03-30T01:33:45.293Z,18.70
2023-03-30T01:37:14.054Z,16.70
2023-03-30T01:41:10.923Z,17.05
2023-03-30T01:44:27.302Z,14.85
2023-03-30T01:47:44.336Z,16.13
2023-03-30T01:50:54.300Z,21.95
2023-03-30T01:54:23.603Z,17.10
2023-03-30T01:57:43.114Z,17.02
2023-03-30T02:00:51.082Z,14.55
2023-03-30T02:03:59.901Z,16.60
2023-03-30T02:07:11.296Z,14.65
2023-03-30T02:10:31.853Z,16.42
2023-03-30T02:13:43.478Z,14.27
2023-03-30T02:16:57.077Z,15.70
2023-03-30T02:20:07.400Z,14.65
2023-03-30T02:23:18.862Z,14.57
2023-03-30T02:26:24.082Z,15.35
2023-03-30T02:29:29.856Z,15.73
2023-03-30T02:32:43.041Z,13.45
2023-03-30T02:35:47.277Z,13.23
2023-03-30T02:39:27.432Z,14.88
2023-03-30T02:43:12.983Z,13.63
2023-03-30T02:46:38.607Z,12.82
2023-03-30T02:49:43.039Z,15.27
2023-03-30T02:53:11.115Z,13.25
2023-03-30T02:56:34.916Z,12.98
2023-03-30T03:00:09.012Z,13.35
2023-03-30T03:03:25.473Z,13.60
2023-03-30T03:06:33.896Z,15.13
2023-03-30T03:09:38.191Z,15.48
2023-03-30T03:12:45.476Z,15.25
2023-03-30T03:15:51.842Z,12.63
2023-03-30T03:18:56.248Z,18.92
2023-03-30T03:22:01.820Z,15.50
2023-03-30T03:25:11.184Z,17.33
2023-03-30T03:28:32.907Z,23.52
2023-03-30T03:31:42.864Z,11.07
2023-03-30T03:34:47.315Z,9.55
2023-03-30T03:37:51.842Z,5.68
2023-03-30T03:40:58.834Z,6.40
2023-03-30T03:44:03.910Z,7.15
2023-03-30T03:47:08.398Z,5.53
2023-03-30T03:50:12.849Z,5.40
2023-03-30T03:53:17.332Z,6.00
2023-03-30T03:56:22.193Z,7.38
2023-03-30T03:59:26.707Z,5.10
2023-03-30T04:02:31.893Z,4.20
2023-03-30T04:05:36.887Z,3.88
2023-03-30T04:12:03.343Z,4.57
2023-03-30T04:15:28.142Z,2.72
2023-03-30T04:18:47.733Z,4.22
2023-03-30T04:22:16.620Z,3.20
2023-03-30T04:25:37.863Z,2.83
2023-03-30T04:29:21.666Z,5.18
2023-03-30T04:33:04.697Z,2.55
2023-03-30T04:36:30.478Z,1.92
2023-03-30T04:39:42.362Z,2.50
2023-03-30T04:43:16.685Z,2.50
2023-03-30T04:46:31.063Z,4.07
2023-03-30T04:49:49.510Z,3.60
2023-03-30T04:52:59.284Z,3.20
2023-03-30T04:56:23.718Z,3.67
2023-03-30T04:59:38.784Z,3.10
2023-03-30T05:03:07.434Z,4.13
2023-03-30T05:06:42.797Z,1.95
2023-03-30T05:10:19.232Z,3.60
2023-03-30T05:14:00.985Z,3.60
2023-03-30T05:17:21.123Z,4.65
2023-03-30T05:20:37.735Z,6.03
2023-03-30T05:23:58.978Z,4.00
2023-03-30T05:27:38.456Z,3.22
2023-03-30T05:31:12.159Z,4.80
2023-03-30T05:34:26.167Z,3.50
2023-03-30T05:37:52.700Z,3.20
2023-03-30T05:41:29.288Z,3.38
2023-03-30T05:44:57.210Z,2.72
2023-03-30T05:48:35.110Z,7.38
2023-03-30T05:51:55.932Z,11.18
2023-03-30T05:55:31.432Z,5.00
2023-03-30T05:58:53.005Z,5.97
2023-03-30T06:02:20.726Z,5.60
2023-03-30T06:08:31.464Z,17.13
2023-03-30T06:11:39.661Z,5.95
2023-03-30T06:14:54.278Z,9.80
2023-03-30T06:18:24.613Z,4.00
2023-03-30T06:21:41.580Z,4.35
2023-03-30T06:25:05.053Z,8.48
2023-03-30T06:28:09.682Z,7.40
2023-03-30T06:31:14.212Z,5.60
2023-03-30T06:34:19.832Z,59.50
2023-03-30T06:37:24.471Z,47.53
2023-03-30T06:40:28.799Z,9.50
2023-03-30T06:43:34.146Z,27.63
2023-03-30T06:46:45.549Z,15.38
2023-03-30T06:49:49.546Z,10.60
2023-03-30T06:53:12.423Z,10.35
2023-03-30T06:56:19.526Z,4.30
2023-03-30T06:59:40.615Z,7.65
2023-03-30T07:03:11.276Z,10.95
2023-03-30T07:06:25.216Z,3.38
2023-03-30T07:09:29.509Z,4.40
2023-03-30T07:12:33.850Z,5.03
2023-03-30T07:15:38.713Z,4.13
2023-03-30T07:18:42.965Z,4.47
2023-03-30T07:21:47.350Z,2.80
2023-03-30T07:24:54.105Z,3.33
2023-03-30T07:27:58.640Z,3.73
2023-03-30T07:31:12.068Z,3.85
2023-03-30T07:34:18.689Z,45.28
2023-03-30T07:37:29.726Z,7.28
2023-03-30T07:40:34.357Z,3.35
2023-03-30T07:43:43.989Z,4.13
2023-03-30T07:46:48.387Z,2.15
2023-03-30T07:50:01.212Z,4.03
2023-03-30T07:53:06.473Z,4.68
2023-03-30T07:56:11.520Z,4.53
2023-03-30T07:59:25.082Z,5.35
2023-03-30T08:02:33.648Z,2.70
2023-03-30T08:05:38.038Z,2.72
2023-03-30T08:08:51.806Z,2.65
2023-03-30T08:11:56.236Z,2.15
2023-03-30T08:18:09.891Z,4.85
2023-03-30T08:21:14.694Z,3.08
2023-03-30T08:24:34.814Z,2.70
2023-03-30T08:27:39.240Z,5.15
2023-03-30T08:30:43.177Z,6.72
2023-03-30T08:33:47.389Z,5.65
2023-03-30T08:36:51.744Z,4.65
2023-03-30T08:39:58.747Z,5.10
2023-03-30T08:43:23.759Z,5.93
2023-03-30T08:46:30.241Z,7.70
2023-03-30T08:49:39.832Z,7.50
2023-03-30T08:52:47.823Z,8.18
2023-03-30T08:56:34.191Z,10.80
2023-03-30T08:59:47.372Z,5.70
2023-03-30T09:03:00.720Z,4.97
2023-03-30T09:06:25.834Z,5.07
2023-03-30T09:09:33.400Z,4.85
2023-03-30T09:12:52.583Z,5.00
2023-03-30T09:16:12.525Z,5.25
2023-03-30T09:19:27.263Z,6.68
2023-03-30T09:22:43.162Z,7.00
2023-03-30T09:25:57.805Z,6.97
2023-03-30T09:29:20.824Z,8.43
2023-03-30T09:32:38.142Z,8.77
2023-03-30T09:35:45.562Z,10.30
2023-03-30T09:38:51.222Z,11.88
2023-03-30T09:42:29.248Z,13.15
2023-03-30T09:45:35.731Z,11.95
2023-03-30T09:48:42.413Z,12.18
2023-03-30T09:52:26.542Z,12.70
2023-03-30T09:55:36.570Z,13.38
2023-03-30T09:58:40.891Z,50.47
2023-03-30T10:01:45.105Z,35.67
2023-03-30T10:04:56.122Z,28.98
2023-03-30T10:08:04.124Z,23.88
2023-03-30T10:11:09.905Z,28.02
2023-03-30T10:14:28.977Z,31.85
2023-03-30T10:17:34.055Z,34.80
2023-03-30T10:20:40.206Z,38.60
2023-03-30T10:23:48.142Z,43.10
2023-03-30T10:26:56.633Z,37.63
2023-03-30T10:30:12.374Z,34.67
2023-03-30T10:33:17.037Z,33.88
2023-03-30T10:36:22.445Z,28.20
2023-03-30T10:39:33.446Z,26.00
2023-03-30T10:42:38.301Z,22.23
2023-03-30T10:45:50.061Z,23.70
2023-03-30T10:48:57.468Z,21.50
2023-03-30T10:52:11.017Z,21.63
2023-03-30T10:55:21.562Z,21.42
2023-03-30T10:58:31.694Z,20.30
2023-03-30T11:01:57.376Z,49.15
2023-03-30T11:05:13.305Z,57.97
2023-03-30T11:08:23.715Z,55.63
2023-03-30T11:11:41.186Z,49.08
2023-03-30T11:14:53.954Z,43.45
2023-03-30T11:18:22.865Z,33.97
2023-03-30T11:21:35.526Z,69.20
2023-03-30T11:24:43.119Z,45.75
2023-03-30T11:28:31.739Z,39.63
2023-03-30T11:31:45.116Z,33.70
2023-03-30T11:35:07.137Z,20.83
2023-03-30T11:38:14.751Z,20.80
2023-03-30T11:41:33.594Z,20.20
2023-03-30T11:44:38.793Z,26.75
2023-03-30T11:48:16.574Z,21.73
2023-03-30T11:51:48.308Z,23.20
2023-03-30T11:55:03.039Z,27.45
2023-03-30T12:01:59.705Z,28.58
2023-03-30T12:05:21.846Z,24.67
2023-03-30T12:09:13.988Z,21.25
2023-03-30T12:12:25.371Z,19.50
2023-03-30T12:15:39.220Z,18.50
2023-03-30T12:18:49.868Z,30.77
2023-03-30T12:22:27.247Z,16.90
2023-03-30T12:26:15.345Z,15.48
2023-03-30T12:30:00.272Z,12.75
2023-03-30T12:33:04.563Z,22.23
2023-03-30T12:36:40.816Z,15.15
2023-03-30T12:40:00.653Z,11.73
2023-03-30T12:43:17.496Z,17.75
2023-03-30T12:46:36.714Z,38.97
2023-03-30T12:50:10.269Z,45.95
2023-03-30T12:53:32.547Z,39.75
2023-03-30T12:56:52.327Z,36.95
2023-03-30T13:00:26.776Z,30.08
2023-03-30T13:03:40.191Z,39.65
2023-03-30T13:06:50.346Z,40.00
2023-03-30T13:09:56.466Z,41.60
2023-03-30T13:13:03.196Z,26.80
2023-03-30T13:16:11.102Z,20.55
2023-03-30T13:19:33.872Z,15.65
2023-03-30T13:22:38.323Z,23.33
2023-03-30T13:26:04.181Z,31.63
2023-03-30T13:29:13.020Z,27.83
2023-03-30T13:32:41.904Z,29.35
2023-03-30T13:36:17.258Z,31.80
2023-03-30T13:39:44.712Z,30.63
2023-03-30T13:43:20.445Z,33.10
2023-03-30T13:46:49.328Z,102.25
2023-03-30T13:50:04.219Z,31.58
2023-03-30T13:53:12.138Z,38.72
2023-03-30T13:56:17.049Z,46.33
2023-03-30T13:59:25.752Z,32.90
2023-03-30T14:02:32.042Z,32.60
2023-03-30T14:05:39.648Z,41.72
2023-03-30T14:08:48.573Z,52.10
2023-03-30T14:12:03.368Z,44.65
2023-03-30T14:15:26.656Z,38.83
2023-03-30T14:18:31.609Z,39.58
2023-03-30T14:21:38.935Z,40.27
2023-03-30T14:24:58.223Z,38.35
2023-03-30T14:28:22.471Z,31.58
2023-03-30T14:31:30.303Z,34.53
2023-03-30T14:34:35.172Z,41.47
2023-03-30T14:37:40.320Z,31.58
2023-03-30T14:40:45.458Z,29.30
2023-03-30T14:43:57.736Z,29.60
2023-03-30T14:47:02.075Z,27.63
2023-03-30T14:50:11.364Z,28.02
2023-03-30T14:53:17.276Z,28.38
2023-03-30T14:56:23.661Z,24.35
2023-03-30T14:59:29.756Z,24.48
2023-03-30T15:02:38.356Z,25.80
2023-03-30T15:05:43.988Z,40.92
2023-03-30T15:08:49.484Z,42.10
2023-03-30T15:12:04.439Z,45.47
2023-03-30T15:15:13.515Z,44.65
2023-03-30T15:18:22.831Z,33.67
2023-03-30T15:21:31.502Z,32.97
2023-03-30T15:24:38.324Z,36.00
2023-03-30T15:27:48.212Z,34.72
2023-03-30T15:30:54.597Z,38.78
2023-03-30T15:34:02.883Z,28.02
2023-03-30T15:37:22.994Z,32.20
2023-03-30T15:40:37.920Z,27.52
2023-03-30T15:43:58.611Z,30.00
2023-03-30T15:47:03.641Z,30.75
2023-03-30T15:50:14.550Z,31.57
2023-03-30T15:53:50.188Z,29.77
2023-03-30T15:57:09.271Z,28.90
2023-03-30T16:00:21.525Z,27.33
2023-03-30T16:03:48.616Z,26.92
2023-03-30T16:06:56.375Z,34.30
2023-03-30T16:10:03.235Z,30.67
2023-03-30T16:13:08.961Z,24.65
2023-03-30T16:16:15.093Z,24.73
2023-03-30T16:19:20.698Z,22.60
2023-03-30T16:22:24.943Z,17.88
2023-03-30T16:28:37.132Z,23.08
2023-03-30T16:31:41.682Z,20.58
2023-03-30T16:34:47.124Z,19.33
2023-03-30T16:37:51.145Z,17.20
2023-03-30T16:40:58.840Z,18.02
2023-03-30T16:44:03.005Z,14.15
2023-03-30T16:50:28.712Z,14.43
2023-03-30T16:53:33.296Z,19.73
2023-03-30T16:56:38.649Z,14.98
2023-03-30T16:59:43.392Z,17.65
2023-03-30T17:02:48.395Z,19.80
2023-03-30T17:05:52.822Z,18.52
2023-03-30T17:08:57.010Z,15.23
2023-03-30T17:12:01.524Z,15.45
2023-03-30T17:15:09.595Z,14.52
2023-03-30T17:18:22.305Z,12.93
2023-03-30T17:21:26.989Z,21.13
2023-03-30T17:24:31.155Z,13.70
2023-03-30T17:27:35.675Z,18.02
2023-03-30T17:30:43.984Z,18.27
2023-03-30T17:33:49.314Z,17.38
2023-03-30T17:36:53.898Z,19.10
2023-03-30T17:39:58.208Z,20.05
2023-03-30T17:43:02.274Z,17.60
2023-03-30T17:46:07.047Z,15.50
2023-03-30T17:49:18.623Z,19.17
2023-03-30T17:52:23.070Z,19.08
2023-03-30T17:55:30.217Z,25.52
2023-03-30T17:58:36.744Z,17.63
2023-03-30T18:01:41.188Z,15.45
2023-03-30T18:04:45.554Z,15.43
2023-03-30T18:07:49.752Z,16.05
2023-03-30T18:10:58.750Z,16.90
2023-03-30T18:14:03.295Z,17.05
2023-03-30T18:17:07.955Z,19.90
2023-03-30T18:20:22.108Z,20.63
2023-03-30T18:23:26.787Z,42.33
2023-03-30T18:26:33.046Z,31.20
2023-03-30T18:29:37.810Z,31.98
2023-03-30T18:32:47.291Z,21.60
2023-03-30T18:35:53.157Z,20.58
2023-03-30T18:38:58.024Z,22.00
2023-03-30T18:42:02.477Z,22.10
2023-03-30T18:45:07.508Z,17.27
2023-03-30T18:48:17.265Z,17.10
2023-03-30T18:51:22.522Z,14.15
2023-03-30T18:54:27.062Z,14.20
2023-03-30T18:57:31.568Z,12.27
2023-03-30T19:00:37.152Z,10.50
2023-03-30T19:03:41.617Z,13.15
2023-03-30T19:06:47.071Z,10.17
2023-03-30T19:09:51.680Z,11.75
2023-03-30T19:12:57.060Z,10.85
2023-03-30T19:16:05.238Z,10.88
2023-03-30T19:19:15.405Z,11.75
2023-03-30T19:22:19.904Z,17.73
2023-03-30T19:25:26.930Z,12.35
2023-03-30T19:28:31.974Z,11.10
2023-03-30T19:31:38.269Z,12.43
2023-03-30T19:34:42.707Z,11.70
2023-03-30T19:37:47.711Z,10.05
2023-03-30T19:40:52.422Z,31.77
2023-03-30T19:43:56.773Z,28.80
2023-03-30T19:47:01.380Z,12.20
2023-03-30T19:50:11.196Z,20.73
2023-03-30T19:53:15.894Z,11.05
2023-03-30T19:56:45.083Z,14.05
2023-03-30T19:59:50.532Z,31.23
2023-03-30T20:02:56.147Z,11.77
2023-03-30T20:06:00.553Z,11.65
2023-03-30T20:09:05.146Z,11.93
2023-03-30T20:12:10.213Z,10.63
2023-03-30T20:15:15.314Z,11.38
2023-03-30T20:18:21.493Z,13.25
2023-03-30T20:21:27.403Z,17.58
2023-03-30T20:24:31.848Z,17.25
2023-03-30T20:27:37.078Z,11.07
2023-03-30T20:30:42.192Z,10.70
2023-03-30T20:33:46.448Z,12.68
2023-03-30T20:36:51.436Z,13.48
2023-03-30T20:40:04.207Z,13.48
2023-03-30T20:43:11.436Z,14.68
2023-03-30T20:46:19.202Z,16.25
2023-03-30T20:49:23.411Z,23.75
2023-03-30T20:52:28.651Z,19.02
2023-03-30T20:55:32.790Z,15.48
2023-03-30T20:58:38.629Z,15.02
2023-03-30T21:01:44.512Z,13.60
2023-03-30T21:04:49.119Z,12.65
2023-03-30T21:07:56.869Z,19.90
2023-03-30T21:11:02.724Z,22.50
2023-03-30T21:14:12.889Z,21.17
2023-03-30T21:17:17.370Z,18.48
2023-03-30T21:20:22.203Z,15.75
2023-03-30T21:23:27.456Z,15.43
2023-03-30T21:26:32.362Z,17.33
2023-03-30T21:29:36.826Z,55.87
2023-03-30T21:32:42.192Z,53.38
2023-03-30T21:35:54.552Z,25.35
2023-03-30T21:39:00.255Z,17.83
2023-03-30T21:45:08.337Z,24.98
2023-03-30T21:48:15.670Z,24.42
2023-03-30T21:51:27.489Z,23.15
2023-03-30T21:54:32.286Z,24.90
2023-03-30T21:57:46.006Z,21.42
2023-03-30T22:00:58.329Z,23.27
2023-03-30T22:04:12.988Z,24.98
2023-03-30T22:07:17.473Z,27.42
2023-03-30T22:10:22.296Z,30.80
2023-03-30T22:13:27.554Z,47.75
2023-03-30T22:16:33.983Z,54.67
2023-03-30T22:19:38.717Z,52.50
2023-03-30T22:22:43.091Z,45.17
2023-03-30T22:25:47.796Z,33.75
2023-03-30T22:28:52.169Z,29.48
2023-03-30T22:31:57.026Z,33.53
2023-03-30T22:35:01.918Z,31.33
2023-03-30T22:38:07.341Z,22.73
2023-03-30T22:41:11.318Z,20.92
2023-03-30T22:44:15.550Z,20.38
2023-03-30T22:47:19.422Z,22.45
2023-03-30T22:50:25.276Z,22.42
2023-03-30T22:53:31.057Z,17.95
2023-03-30T22:56:35.428Z,9.38
2023-03-30T22:59:39.404Z,7.45
2023-03-30T23:02:44.713Z,12.80
2023-03-30T23:05:56.744Z,7.85
2023-03-30T23:09:05.357Z,8.13
2023-03-30T23:12:10.174Z,8.20
2023-03-30T23:15:15.160Z,8.77
2023-03-30T23:18:19.521Z,7.75
2023-03-30T23:21:23.589Z,8.40
2023-03-30T23:24:28.034Z,6.35
2023-03-30T23:27:32.088Z,6.80
2023-03-30T23:30:39.019Z,8.95
2023-03-30T23:33:44.405Z,6.15
2023-03-30T23:36:50.649Z,7.22
2023-03-30T23:39:54.944Z,10.75
2023-03-30T23:42:59.199Z,9.32
2023-03-30T23:46:03.168Z,7.38
2023-03-30T23:49:07.670Z,6.78
2023-03-30T23:52:12.756Z,5.25
2023-03-30T23:55:19.276Z,8.88
2023-03-30T23:58:24.369Z,5.13
